Timeline UpdatesTrip UpdatesNews PostsPvt PostsTravel TipsAdmin PostsConv PostsFollowed PostsChat RequestsBlog PostsPNR Posts

Disclaimer
Search
 
 
Fri Aug 22, 2014 23:12:16 ISTHomeTrainsΣChainsAtlasPNRForumGalleryNewsFAQTripsMembersLoginFeedback
No Recent News for this Train
Other Trains in the News **new
Latest...
.
Mon Jul 28, 2014 (03:38PM)
⇐ Return Journey: Train# 59386-Slip

18238-Slip/Chhattisgarh Express Slip

Jul 12 2013 (12:57PM)
Change Departure Station:
Change Arrival Station:
Post a Train Travel TipPost a Train Travel Tip **new
Post a Comment/Question/Picture/VideoPost a Comment/Question/Picture/Video
Pantry/Catering
✕ NO Pantry Car
✕ NO Catering
RSA - Rake Sharing
.
Rake/Coach Composition
Attached to 59385 Panchvalley Fast Passenger at Amla to run upto Chhindwara ; SP1(Itz attached at the end of the train)
Loco
ASR - NZM > TKD WDP4B/4D NZM-AMLA> AJNI WAP7 AMLA-CWA> RTM WDM3A
News    PNR    Forum    Time-Table    Availability    Fare Chart    Map    Arr/Dep History    Trips    Gallery    ΣChains    X/O    Timeline    
Travel Time: 30h 10m    57 halts    Distance: 1296 km    Avg Speed: 42 km/hr
Type: Mail/Express
Zone: CR/Central
Departs @ 22:20 (Avg 14m late)
Platform# 1
SMTWTFS
Ambala Cantt. Junction/UMB 
Arrives @ 04:30 +2 nights
Platform# 3
SMTWTFS
Chhindwara Junction/CWA 

57 halts. 182 intermediate Stations between Ambala Cantt. Junction and Chhindwara Junction

Show ALL intermediate Stations  Show Old Time-Table

#CodeStation NameX/OArrivesAvgDepartsAvgHaltPFDay#KmSpeedElevZoneAddress
1ASRAmritsar Junction (5)  -16:15+821-249.677233mNRAmritsar 143002, Punjab
2JNLJandiala (2)  16:30+1816:32+182m21-230.480238mNRJandiala, Punjab
3BEASBeas Junction (2)  16:50+2016:52+202m21-206.561238mNRBeas, Punjab
4KREKartarpur (2)X  17:13+2017:15+202m11-185.173236mNRKartarpur, Punjab
5JUCJalandhar City Junction (5)X  17:27+2317:35+228m21-170.422239mNRJalandhar 144001, Punjab
6JRCJalandhar Cantt. Junction (3)X  17:48+1717:50+292m21-165.665239mNRNear Rama Mandi, Punjab
7PGWPhagwara Junction (3)X  18:05+3118:07+312m11-149.342245mNRPhagwara, Punjab
8GRYGoraya (2)XO  18:21+2918:23+312m11-139.433240mNRGoraya, Punjab
9PHRPhillaur Junction (3)  18:46+2118:48+212m11-126.746246mNRPhillaur, Punjab
10LDHLudhiana Junction (7)X  19:05+2019:15+2110m11-113.622246mNRLudhiana 141001, Punjab
11SNLSanehwal (3)X  19:56+319:58+72m21-98.555260mNRLudhiana, Punjab
12DOADoraha (2)X  20:06+1520:08+152m21-91.257261mNRDoraha, Punjab
13CHAChawapail (2)X  20:18+1420:20+142m21-81.766267mNRLudhiana, Punjab
14KNNKhanna (3)  20:30+1520:32+152m21-70.854269mNRNH 1, Punjab
15GVGMandi Gobindgarh (2)  20:41+1720:43+172m11-62.749268mNRMandi Gobindgarh, Punjab
16SIRSirhind Junction (3)  20:55+1720:57+172m21-52.965271mNRSirhind, Punjab
17RPJRajpura Junction (3)X  21:20+1921:22+192m21-28.156272mNRNH-1, Punjab
18UBCAmbala City (3)X  21:44+1821:46+192m11-7.621273mNRNH-1, Haryana
19UMB»Ambala Cantt. Junction (7)»X  22:08+1522:20+1412m110.068278mNRAmbala 133001, Haryana
20RAABarara (2)  22:42+2222:44+222m1124.871279mNRBarara, Haryana
21JUDWJagadhri Workshop (2)  23:02+2323:04+232m1146.043280mNRRailway Workshop Road, Haryana
22JUDYamunanagar-Jagadhri (3)  23:11+2323:13+242m2151.035275mNRYamunanagar, Haryana
23SRESaharanpur Junction (6)X  00:05+600:15+710m--281.268276mNRSaharanpur, Uttar Pradesh
24DBDDeoband (2)  00:45+2200:47+232m--2115.376258mNRSaharanpur, Uttar Pradesh
25MOZMuzaffarnagar (3)  01:06+2601:08+262m--2139.451247mNRMuzaffarNagar, Uttar Pradesh
26KATKhatauli (2)X  01:34+2101:36+262m--2161.554239mNRKhatauli, Uttar Pradesh
27DRLADaurala (1)  01:56+2301:58+232m12179.561232mNRMeerut, Uttar Pradesh
28MUTMeerut Cantt. (2)  02:09+2502:11+262m--2190.629230mNRMeerut, Uttar Pradesh
29MTCMeerut City Junction (6)  02:20+2502:25+235m22195.083229mNRMeerut, Uttar Pradesh
30MDNRModinagar (2)  02:39+2702:41+272m--2214.478221mNRGhaziabad, Uttar Pradesh
31GUHGuldhar (2)  02:55+2702:57+272m--2232.519224mNRGhaziabad, Uttar Pradesh
32GZBGhaziabad Junction (6)  03:28+1403:30+152m32242.250217mNRGhaziabad, Uttar Pradesh
33SBBSahibabad Junction (5)  03:38+2103:40+212m--2248.927209mNRGhaziabad, Uttar Pradesh
34NZMDelhi Hazrat Nizamuddin (7)X  04:15+1504:40+1525m22264.960209mNRNew Delhi 110013, Delhi NCT
35BVHBallabgarh (5)X  05:09+2005:11+192m42293.842203mNRFaridabad, Haryana
36PWLPalwal (8)X  05:41+1605:43+182m42315.085200mNRPalwal, Haryana
37KSVKosi Kalan (3)X  06:13+2506:15+252m22357.456189mNCRKosi Kalan, Uttar Pradesh
38CHJChata (4)X  06:26+2706:28+282m--2367.769 NCRChhata, Uttar Pradesh
39MTJMathura Junction (10)X  06:55+2907:00+295m12398.953179mNCRMathura, Uttar Pradesh
40RKMRaja Ki Mandi (4)XO  07:56+3807:58+382m22448.68170mNCRAgra, Uttar Pradesh
41AGCAgra Cantt. (6)X  08:30+1708:40+1910m12452.679174mNCRAgra, Uttar Pradesh
42DHODholpur Junction (3)X  09:20+3009:22+432m32505.262177mNCRDholpur, Rajasthan
43MRAMorena (3)X  09:48+4509:50+502m12532.083176mNCRMorena, Madhya Pradesh
44BAOBanmorXO  10:04+5610:06+1:052m--2551.330189mNCRGwalior, Madhya Pradesh
45GWLGwalior Junction (4)XO  10:45+5710:50+1:025m12570.667214mNCRGwalior, Madhya Pradesh
46DBADabra (3)  11:28+1:0311:30+1:042m--2612.963 NCRDabra(District-Gwalior), Madhya Pradesh
47SORSonagir (2)O  11:48+1:0611:50+1:062m--2631.730211mNCRDatia, Madhya Pradesh
48DAADatia (2)X  12:13+5912:15+1:002m--2643.227264mNCRDatia, Madhya Pradesh
49JHSJhansi Junction (7)  13:10+3413:20+4110m--2668.367259mNCRJhansi, Uttar Pradesh
50BABBabina (3)X  13:43+5313:45+542m12693.852285mNCRBabina, Uttar Pradesh
51BZYBasai (3)X  13:59+5414:01+552m12705.955287mNCR07522289600(Gate ManMob. - 9452701575), Madhya Pradesh
52TBTTalbahat (4)X  14:15+5514:17+582m22718.783314mNCRKhaniyadhana Station Rd, Madhya Pradesh
53LARLalitpur (3)  14:46+1:0014:48+1:012m12758.685373mNCRLalitpur, Uttar Pradesh
54DUADhaura (3)XO  15:08+1:1115:10+1:132m--2786.928407mNCRDhaura Tanda, Madhya Pradesh
55BINABina Junction (4)X  16:25+4416:30+465m22821.569414mWCRJn Pt - KATNI/GUNA/ BPL/JHS, Madhya Pradesh
56MABAMandi Bamora (3)XO  16:45+5316:47+542m22838.878413mWCRState Highway 14, Madhya Pradesh
57BAQGanj Basoda (4)  17:09+5717:11+572m22867.384 WCRVidisha, Madhya Pradesh
58BHSVidisha (3)X  17:39+1:0517:41+1:072m22906.654 WCRVidisha, Madhya Pradesh
59BPLBhopal Junction (6)X  18:40+1:0018:45+1:025m12960.138497mWCRBhopal, Madhya Pradesh
60HBJBhopal HabibGanj (5)  18:55+1:0618:57+1:072m--2966.377496mWCRHabibGanj, Madhya Pradesh
61ODGObaidulla GanjX  19:20+1:4019:22+1:382m--2996.033 WCRObaidullaganj Raisen Dist., Madhya Pradesh
62HBDHoshangabad (2)XO  20:30+5120:32+522m--21033.729308mWCRHoshangabad, Madhya Pradesh
63ETItarsi Junction (7)  21:10+4221:15+485m--21051.868329mWCRItarsi 461111, Madhya Pradesh
64GDYAGhoradongri (3)X  22:17+5422:19+552m--21122.249 CRBetul, Madhya Pradesh
65BZUBetul (3)  23:03+5723:05+582m--21158.146644mCRBetul, Madhya Pradesh
66AMLAAmla Junction (5)23:35+5001:10+1595m--21181.039733mCRAmla Distt. Betul, Madhya Pradesh
67JMVJambara (1)  01:31-01:33-2m131194.750706mCRAmla, Madhya Pradesh
68BCRDBarchi Road (1)O  01:41-01:43-2m131201.365713mCRState Highway 26, Madhya Pradesh
69BXYBordhal (1)O  01:49-01:51-2m131207.846710mCRAmla, Madhya Pradesh
70NVGNavegaon (1)  02:12-02:14-2m131223.756794mCRNayagaon, Madhya Pradesh
71HRGHirdagarh (2)O  02:30-02:32-2m--31238.647721mCRDongar Parasia, Madhya Pradesh
72JNOJunnor Deo (2)O  02:45-02:47-2m--31248.736762mCRDongar Parasia, Madhya Pradesh
73IKRIklehra (1)  03:08-03:10-2m131261.242771mCRDongar Parasia, Madhya Pradesh
74PUXParasia (2)O  03:19-03:21-2m--31267.5150775mCRDongar Parasia, Madhya Pradesh
75KUXKhirsadoh Junction (2)  03:24-03:26-2m--31275.021769mCRChhindwara, Madhya Pradesh
76GNWGangiwara (1)  03:48-03:50-2m131282.620714mCRChhindwara, Madhya Pradesh
77CWA•Chhindwara Junction (3)•  04:30--331295.9-675mSECRNH 69A Seoni Road, Madhya Pradesh
Scroll to Top
Scroll to Bottom